Time;durP1;ratioP1;P1;durP2;ratioP2;P2;SDS_P1;SDS_P2;PMS_P1;PMS_P2;Temp;Humidity;BMP_temperature;BMP_pressure;BME280_temperature;BME280_humidity;BME280_pressure;Samples;Min_cycle;Max_cycle;Signal;HPM_P1;HPM_P2
2023/12/05 00:00:20;;;;;;;17.73;13.87;;;;;;;-1.88;64.83;98644.88;10431575;23;20257;-35
2023/12/05 00:05:22;;;;;;;24.53;15.57;;;;;;;-0.98;63.25;98496.06;10393176;28;20237;-32
2023/12/05 00:10:24;;;;;;;18.73;13.83;;;;;;;-1.40;63.84;98559.38;10438105;28;20233;-32
2023/12/05 00:15:26;;;;;;;21.63;15.67;;;;;;;-1.89;65.43;98558.47;10464043;28;20318;-35
2023/12/05 00:20:28;;;;;;;24.43;16.47;;;;;;;-1.92;65.46;98577.91;10458583;28;20306;-35
2023/12/05 00:25:30;;;;;;;27.03;18.10;;;;;;;-0.95;64.01;98377.63;10460732;28;20230;-32
2023/12/05 00:30:31;;;;;;;20.37;14.57;;;;;;;-0.92;61.71;98537.53;10450883;28;20229;-33
2023/12/05 00:35:33;;;;;;;23.30;16.07;;;;;;;-1.25;64.41;98462.69;10472261;28;20216;-33
2023/12/05 00:40:35;;;;;;;20.80;14.60;;;;;;;0.55;60.31;98308.72;10469411;28;20430;-32
2023/12/05 00:45:37;;;;;;;19.23;13.13;;;;;;;-0.74;61.13;98598.06;10477738;28;20643;-33
2023/12/05 00:50:39;;;;;;;19.97;14.07;;;;;;;-1.99;66.17;98582.84;10450737;28;20236;-33
2023/12/05 00:55:46;;;;;;;21.47;15.13;;;;;;;-1.92;65.67;98539.44;10476769;28;20320;-33
2023/12/05 01:00:48;;;;;;;24.00;15.73;;;;;;;-1.80;65.24;98486.84;10465860;28;20306;-33
2023/12/05 01:05:50;;;;;;;20.30;14.60;;;;;;;-1.37;64.74;98447.06;10465811;28;20698;-33
2023/12/05 01:10:52;;;;;;;20.03;14.50;;;;;;;-1.13;62.54;98550.00;10470442;28;20249;-33
2023/12/05 01:15:53;;;;;;;20.93;14.10;;;;;;;-1.21;62.80;98575.16;10471155;28;20316;-33
2023/12/05 01:20:55;;;;;;;20.27;15.00;;;;;;;-1.11;63.57;98521.78;10472326;28;20234;-33
2023/12/05 01:25:57;;;;;;;20.90;12.87;;;;;;;-1.41;64.88;98534.94;10445582;28;20246;-33
2023/12/05 01:30:59;;;;;;;19.70;13.40;;;;;;;-1.96;66.23;98598.31;10452667;28;20327;-34
2023/12/05 01:36:01;;;;;;;17.37;12.80;;;;;;;-1.22;64.53;98543.78;10478205;28;20343;-33
2023/12/05 01:41:03;;;;;;;20.70;14.50;;;;;;;-1.74;67.01;98515.97;10451334;28;20585;-33
2023/12/05 01:46:06;;;;;;;19.57;12.90;;;;;;;-0.45;64.14;98384.34;10473271;28;20230;-33
2023/12/05 01:51:09;;;;;;;16.93;12.87;;;;;;;-0.72;64.22;98475.28;10469360;28;20337;-33
2023/12/05 01:56:13;;;;;;;15.73;12.87;;;;;;;-0.70;63.08;98520.63;10477004;28;20206;-34
2023/12/05 02:01:15;;;;;;;14.93;11.97;;;;;;;-0.72;63.57;98537.50;10467181;28;20230;-34
2023/12/05 02:06:18;;;;;;;16.63;13.23;;;;;;;0.31;62.02;98362.03;10477176;28;20270;-34
2023/12/05 02:11:20;;;;;;;10.47;8.63;;;;;;;-2.34;70.40;98699.41;10435842;28;20643;-34
2023/12/05 02:16:27;;;;;;;10.50;8.10;;;;;;;-1.80;70.11;98568.16;10486299;28;20289;-34
2023/12/05 02:21:35;;;;;;;14.37;10.73;;;;;;;-1.79;69.70;98593.41;10477037;28;20258;-34
2023/12/05 02:26:57;;;;;;;13.90;8.20;;;;;;;-1.55;72.18;98528.31;10465292;28;20234;-33
2023/12/05 02:31:59;;;;;;;8.53;7.07;;;;;;;-0.84;72.58;98371.34;10478371;28;20220;-34
2023/12/05 02:37:20;;;;;;;6.27;5.67;;;;;;;0.39;70.64;98290.19;10477635;28;20237;-34
2023/12/05 02:42:25;;;;;;;8.90;6.03;;;;;;;0.80;67.42;98374.69;10471215;28;20225;-34
2023/12/05 02:47:29;;;;;;;6.37;5.50;;;;;;;0.68;65.51;98501.34;10481267;28;20325;-34
2023/12/05 02:52:31;;;;;;;4.90;4.50;;;;;;;1.22;64.83;98481.97;10474971;28;20241;-34
2023/12/05 02:57:33;;;;;;;5.43;4.23;;;;;;;1.65;63.21;98468.88;10480281;28;20253;-34
2023/12/05 03:02:35;;;;;;;4.80;3.73;;;;;;;1.03;65.05;98569.94;10474292;28;20333;-34
2023/12/05 03:07:37;;;;;;;4.10;3.70;;;;;;;1.44;64.75;98512.28;10481026;28;20242;-34
2023/12/05 03:12:38;;;;;;;4.40;3.73;;;;;;;1.40;64.92;98517.00;10469305;28;20669;-34
2023/12/05 03:17:40;;;;;;;4.70;4.10;;;;;;;1.79;63.31;98508.66;10481923;28;20641;-34
2023/12/05 03:22:42;;;;;;;6.93;4.20;;;;;;;0.89;65.84;98625.81;10473600;28;20228;-34
2023/12/05 03:27:44;;;;;;;6.33;5.10;;;;;;;1.84;63.35;98473.06;10482541;28;20235;-34
2023/12/05 03:32:46;;;;;;;6.10;4.57;;;;;;;1.32;66.92;98550.41;10474806;28;20487;-34
2023/12/05 03:37:47;;;;;;;4.90;4.40;;;;;;;1.47;67.51;98474.22;10480424;28;20258;-34
2023/12/05 03:42:49;;;;;;;4.37;3.97;;;;;;;0.80;70.87;98551.97;10471170;28;20827;-34
2023/12/05 03:47:51;;;;;;;5.63;3.63;;;;;;;0.74;70.26;98614.94;10481089;28;20238;-34
2023/12/05 03:52:53;;;;;;;3.73;3.43;;;;;;;1.72;67.15;98483.88;10473056;28;20695;-34
2023/12/05 03:57:55;;;;;;;3.20;3.00;;;;;;;0.69;70.49;98621.47;10480736;28;20244;-34
2023/12/05 04:02:57;;;;;;;3.80;3.60;;;;;;;0.80;71.02;98590.66;10468009;28;20801;-34
2023/12/05 04:07:59;;;;;;;3.83;3.43;;;;;;;1.51;69.10;98486.13;10463633;28;20720;-34
2023/12/05 04:13:01;;;;;;;3.30;3.07;;;;;;;1.26;69.16;98551.03;10472028;28;20234;-34
2023/12/05 04:18:03;;;;;;;4.60;3.30;;;;;;;2.12;67.97;98497.38;10478012;28;20321;-34
2023/12/05 04:23:04;;;;;;;3.60;3.30;;;;;;;2.82;62.72;98552.47;10456668;28;20350;-34
2023/12/05 04:28:06;;;;;;;3.83;3.53;;;;;;;2.59;64.35;98535.63;10477034;28;20234;-35
2023/12/05 04:33:08;;;;;;;5.00;3.60;;;;;;;2.41;63.89;98589.34;10474843;28;20260;-34
2023/12/05 04:38:10;;;;;;;4.70;3.53;;;;;;;2.47;65.13;98566.78;10476016;28;20662;-35
2023/12/05 04:43:12;;;;;;;3.53;3.23;;;;;;;2.09;66.45;98593.53;10461393;28;20235;-34
2023/12/05 04:48:13;;;;;;;3.97;3.67;;;;;;;2.01;65.22;98656.81;10475305;28;20267;-35
2023/12/05 04:53:15;;;;;;;3.50;3.20;;;;;;;2.34;64.23;98617.41;10471872;28;20251;-34
2023/12/05 04:58:17;;;;;;;4.07;3.67;;;;;;;1.87;66.74;98678.53;10475697;28;20243;-34
2023/12/05 05:03:19;;;;;;;3.97;3.67;;;;;;;2.19;67.15;98548.53;10459579;28;20242;-35
2023/12/05 05:08:21;;;;;;;3.87;2.83;;;;;;;1.84;69.17;98574.13;10469100;28;20314;-35
2023/12/05 05:13:22;;;;;;;3.73;3.43;;;;;;;2.19;66.15;98582.03;10478064;28;20231;-34
2023/12/05 05:18:24;;;;;;;3.27;3.03;;;;;;;2.09;67.23;98648.13;10474656;28;20235;-34
2023/12/05 05:23:26;;;;;;;4.70;3.40;;;;;;;2.60;64.27;98632.34;10422896;28;20250;-34
2023/12/05 05:28:28;;;;;;;4.73;3.60;;;;;;;2.53;63.49;98683.16;10428006;28;20366;-34
2023/12/05 05:33:30;;;;;;;7.80;3.87;;;;;;;2.39;65.31;98665.28;10437432;28;20310;-35
2023/12/05 05:38:32;;;;;;;3.57;3.37;;;;;;;1.96;66.18;98743.53;10432290;28;20244;-34
2023/12/05 05:43:33;;;;;;;4.50;3.30;;;;;;;2.08;67.00;98693.97;10434862;28;20740;-35
2023/12/05 05:48:35;;;;;;;2.70;2.50;;;;;;;2.21;67.63;98631.03;10431474;28;20232;-34
2023/12/05 05:53:37;;;;;;;3.27;3.10;;;;;;;2.35;67.30;98606.69;10428454;28;20237;-34
2023/12/05 05:58:39;;;;;;;7.87;3.23;;;;;;;1.87;67.77;98695.16;10428525;28;20294;-33
2023/12/05 06:03:41;;;;;;;2.43;2.27;;;;;;;1.47;68.69;98751.88;10431360;28;20231;-34
2023/12/05 06:08:43;;;;;;;5.63;3.10;;;;;;;2.54;67.02;98592.38;10430022;28;20616;-34
2023/12/05 06:13:45;;;;;;;3.33;3.13;;;;;;;2.51;66.23;98650.78;10437284;28;20228;-34
2023/12/05 06:18:46;;;;;;;2.70;2.50;;;;;;;1.79;67.69;98721.47;10432925;28;20232;-35
2023/12/05 06:23:48;;;;;;;3.20;3.00;;;;;;;2.27;66.67;98629.59;10436414;28;20577;-34
2023/12/05 06:28:50;;;;;;;4.03;2.73;;;;;;;2.81;64.93;98613.41;10437044;28;20326;-35
2023/12/05 06:33:52;;;;;;;2.53;2.37;;;;;;;2.08;66.08;98715.09;10435874;28;20231;-33
2023/12/05 06:38:54;;;;;;;4.53;2.53;;;;;;;2.75;64.82;98659.78;10436442;28;20321;-35
2023/12/05 06:43:56;;;;;;;3.20;2.70;;;;;;;3.02;64.45;98634.91;10433587;28;20849;-34
2023/12/05 06:48:58;;;;;;;2.67;2.47;;;;;;;3.00;63.52;98692.41;10437521;28;20243;-34
2023/12/05 06:54:00;;;;;;;2.70;2.50;;;;;;;3.57;62.17;98643.22;10435714;28;20722;-35
2023/12/05 06:59:03;;;;;;;3.53;2.93;;;;;;;3.07;63.57;98724.31;10445299;28;20323;-33
2023/12/05 07:04:05;;;;;;;4.70;3.20;;;;;;;2.83;64.08;98739.06;10443133;28;20309;-34
2023/12/05 07:09:07;;;;;;;3.57;3.23;;;;;;;2.19;64.91;98833.63;10444191;28;20246;-34
2023/12/05 07:14:09;;;;;;;7.37;3.57;;;;;;;2.79;63.39;98777.38;10439824;28;20282;-35
2023/12/05 07:19:11;;;;;;;2.90;2.60;;;;;;;2.76;64.30;98702.91;10444066;28;20719;-34
2023/12/05 07:24:13;;;;;;;3.63;2.80;;;;;;;2.78;63.88;98759.84;10441484;28;20259;-36
2023/12/05 07:29:14;;;;;;;2.83;2.50;;;;;;;3.39;62.53;98702.38;10443597;28;20242;-36
2023/12/05 07:34:16;;;;;;;2.70;2.50;;;;;;;2.82;63.13;98765.66;10437130;28;20729;-36
2023/12/05 07:39:19;;;;;;;3.20;3.00;;;;;;;2.95;63.62;98744.09;10439046;28;20266;-36
2023/12/05 07:44:25;;;;;;;2.33;2.13;;;;;;;2.74;63.81;98784.97;10435678;28;20227;-33
2023/12/05 07:49:27;;;;;;;4.63;2.50;;;;;;;2.89;64.27;98708.56;10451435;28;20241;-36
2023/12/05 07:54:29;;;;;;;2.70;2.57;;;;;;;2.40;64.12;98846.50;10460399;28;20735;-34
2023/12/05 07:59:31;;;;;;;2.20;2.10;;;;;;;2.40;64.77;98808.69;10465001;28;20440;-33
2023/12/05 08:04:33;;;;;;;2.40;2.20;;;;;;;2.30;65.27;98803.53;10454944;28;20745;-35
2023/12/05 08:09:34;;;;;;;3.40;2.90;;;;;;;2.63;63.93;98811.63;10462202;28;20238;-35
2023/12/05 08:14:36;;;;;;;3.20;2.57;;;;;;;3.08;63.50;98723.34;10478800;28;20696;-34
2023/12/05 08:19:38;;;;;;;2.77;2.53;;;;;;;1.82;64.72;98963.91;10456826;28;20325;-34
2023/12/05 08:24:40;;;;;;;4.60;3.07;;;;;;;2.63;63.89;98788.69;10475613;28;20309;-34
2023/12/05 08:29:42;;;;;;;3.67;2.77;;;;;;;2.78;63.09;98817.16;10477391;28;20266;-33
2023/12/05 08:34:43;;;;;;;4.97;3.47;;;;;;;1.56;65.29;98976.94;10481853;28;20215;-33
2023/12/05 08:39:45;;;;;;;5.40;3.30;;;;;;;3.04;62.27;98835.63;10468481;28;20232;-33
2023/12/05 08:44:47;;;;;;;3.83;3.47;;;;;;;2.70;63.32;98818.78;10475866;28;20238;-34
2023/12/05 08:49:49;;;;;;;2.97;2.77;;;;;;;1.59;65.44;98974.84;10475775;28;20323;-33
2023/12/05 08:54:51;;;;;;;4.10;2.73;;;;;;;2.68;63.67;98796.13;10479365;28;20206;-35
2023/12/05 08:59:53;;;;;;;5.17;4.27;;;;;;;3.07;62.53;98772.75;10477019;28;20668;-34
2023/12/05 09:04:56;;;;;;;3.37;3.07;;;;;;;3.02;63.43;98745.13;10474464;28;20255;-33
2023/12/05 09:09:58;;;;;;;3.53;2.63;;;;;;;2.63;62.88;98906.72;10467527;28;20492;-34
2023/12/05 09:14:59;;;;;;;4.83;3.33;;;;;;;2.95;62.32;98866.50;10470966;28;20220;-34
2023/12/05 09:20:02;;;;;;;3.80;3.50;;;;;;;3.05;62.24;98846.06;10460465;28;20235;-33
2023/12/05 09:25:05;;;;;;;3.20;2.80;;;;;;;3.60;61.32;98791.03;10466277;28;20224;-33
2023/12/05 09:30:08;;;;;;;3.03;2.83;;;;;;;2.58;63.12;98909.81;10467804;28;20242;-33
2023/12/05 09:35:10;;;;;;;2.80;2.60;;;;;;;3.83;60.87;98770.88;10461731;28;20231;-33
2023/12/05 09:40:12;;;;;;;3.40;3.10;;;;;;;4.07;60.47;98771.88;10467113;28;20775;-34
2023/12/05 09:45:16;;;;;;;2.47;2.37;;;;;;;2.90;61.81;98946.22;10474021;28;20226;-37
2023/12/05 09:50:20;;;;;;;2.40;2.20;;;;;;;3.81;60.34;98862.81;10444957;28;20380;-33
2023/12/05 09:55:23;;;;;;;2.37;2.27;;;;;;;2.94;61.53;98983.78;10451365;28;20596;-33
2023/12/05 10:00:25;;;;;;;2.20;2.10;;;;;;;3.76;60.57;98854.53;10464618;28;20231;-33
2023/12/05 10:05:29;;;;;;;3.07;2.50;;;;;;;3.56;61.00;98867.22;10476839;28;20285;-36
2023/12/05 10:10:33;;;;;;;3.20;3.00;;;;;;;3.01;61.86;98939.06;10465720;28;20234;-35
2023/12/05 10:15:34;;;;;;;2.80;2.70;;;;;;;3.44;61.06;98921.44;10459271;28;20239;-33
2023/12/05 10:20:38;;;;;;;2.57;2.23;;;;;;;3.63;60.66;98880.63;10476894;28;20708;-34
2023/12/05 10:25:43;;;;;;;4.13;2.63;;;;;;;3.83;60.51;98855.56;10467579;28;20245;-34
2023/12/05 10:30:45;;;;;;;2.70;2.50;;;;;;;4.16;59.29;98860.88;10472040;28;20231;-36
2023/12/05 10:35:47;;;;;;;3.30;2.63;;;;;;;4.55;58.98;98848.81;10473147;28;20317;-35
2023/12/05 10:40:56;;;;;;;2.53;2.40;;;;;;;3.71;60.48;98917.72;10476677;28;20239;-34
2023/12/05 10:46:03;;;;;;;4.30;2.33;;;;;;;3.54;60.81;98958.34;10484136;28;20315;-36
2023/12/05 10:51:05;;;;;;;2.20;2.00;;;;;;;2.68;61.68;99076.16;10474374;28;20237;-36
2023/12/05 10:56:10;;;;;;;2.60;2.10;;;;;;;3.21;61.59;98997.81;10480319;28;20235;-33
2023/12/05 11:06:12;;;;;;;2.43;2.23;;;;;;;2.97;63.59;98861.06;10534426;27;20743;-69
2023/12/05 11:11:14;;;;;;;2.33;2.13;;;;;;;3.03;63.49;98858.63;10472251;28;20247;-69
2023/12/05 11:16:30;;;;;;;2.20;2.10;;;;;;;3.34;62.83;98820.22;10445478;28;20243;-69
2023/12/05 11:21:49;;;;;;;2.60;2.40;;;;;;;3.20;63.28;98835.72;10456215;28;20262;-69
2023/12/05 11:27:01;;;;;;;2.37;2.20;;;;;;;3.84;62.05;98775.16;10466174;28;20334;-69
2023/12/05 11:32:23;;;;;;;2.60;2.40;;;;;;;3.43;62.89;98843.09;10464728;28;20616;-69
2023/12/05 11:37:55;;;;;;;2.30;2.13;;;;;;;3.50;62.81;98812.34;10483717;28;20238;-69
2023/12/05 11:43:06;;;;;;;2.23;2.10;;;;;;;3.59;61.37;98850.22;10453846;28;20610;-69
2023/12/05 11:48:15;;;;;;;2.40;2.20;;;;;;;3.26;62.01;98895.91;10451350;28;20227;-69
2023/12/05 11:53:20;;;;;;;2.57;2.37;;;;;;;2.59;62.77;99000.47;10454642;28;20219;-69
2023/12/05 11:58:30;;;;;;;2.43;2.23;;;;;;;2.59;62.92;99011.88;10455107;28;20340;-69
2023/12/05 12:03:52;;;;;;;2.20;2.10;;;;;;;2.95;62.45;98926.47;10459157;28;20484;-69
2023/12/05 12:08:56;;;;;;;2.87;2.67;;;;;;;3.39;62.36;98817.94;10458969;28;20232;-69
2023/12/05 12:14:13;;;;;;;2.10;2.00;;;;;;;3.04;63.48;98873.50;10446763;28;20405;-69
2023/12/05 12:19:16;;;;;;;2.67;2.47;;;;;;;3.30;63.72;98816.25;10440204;28;20232;-69
2023/12/05 12:24:22;;;;;;;2.63;2.37;;;;;;;2.97;64.04;98895.41;10424945;28;20234;-69
2023/12/05 12:29:25;;;;;;;3.07;2.77;;;;;;;3.38;63.50;98826.84;10427532;28;20459;-69
2023/12/05 12:34:27;;;;;;;2.30;2.20;;;;;;;2.97;64.74;98906.00;10435736;28;20232;-69
2023/12/05 12:39:29;;;;;;;4.70;2.83;;;;;;;3.01;64.32;98918.75;10421257;28;20256;-69
2023/12/05 12:44:31;;;;;;;2.37;2.17;;;;;;;2.57;65.40;98949.59;10422606;28;20718;-69
2023/12/05 12:49:33;;;;;;;4.63;2.70;;;;;;;3.11;65.29;98815.53;10428434;28;20745;-70
2023/12/05 12:54:38;;;;;;;3.67;2.67;;;;;;;2.84;66.11;98857.00;10423006;28;20691;-69
2023/12/05 12:59:41;;;;;;;2.40;2.20;;;;;;;3.11;65.11;98855.19;10425511;28;20324;-69
2023/12/05 13:04:44;;;;;;;3.17;2.40;;;;;;;3.46;65.15;98803.06;10426389;28;20291;-69
2023/12/05 13:09:46;;;;;;;5.57;3.00;;;;;;;3.41;65.42;98782.41;10428010;28;20274;-69
2023/12/05 13:14:49;;;;;;;3.13;2.83;;;;;;;3.41;64.98;98834.47;10419833;28;20297;-69
2023/12/05 13:20:03;;;;;;;3.77;2.90;;;;;;;3.31;64.11;98919.25;10426035;28;20259;-69
2023/12/05 13:25:06;;;;;;;5.50;2.70;;;;;;;2.91;65.55;98899.53;10430737;28;20704;-69
2023/12/05 13:30:08;;;;;;;3.27;2.70;;;;;;;3.51;64.12;98843.06;10421517;28;20302;-69
2023/12/05 13:35:11;;;;;;;2.93;2.63;;;;;;;3.12;64.96;98830.38;10421815;28;20240;-69
2023/12/05 13:40:13;;;;;;;3.23;2.70;;;;;;;2.51;65.09;98959.78;10426327;28;20323;-69
2023/12/05 13:45:15;;;;;;;3.93;2.87;;;;;;;3.31;63.83;98815.25;10433623;28;20243;-69
2023/12/05 13:50:21;;;;;;;3.03;2.10;;;;;;;2.96;63.29;98859.41;10427162;28;20228;-69
2023/12/05 13:55:22;;;;;;;4.10;2.40;;;;;;;3.60;62.08;98810.38;10426805;28;20247;-69
2023/12/05 14:00:25;;;;;;;2.30;2.10;;;;;;;3.38;62.07;98870.00;10430446;28;20235;-69
2023/12/05 14:05:27;;;;;;;2.60;2.40;;;;;;;2.94;62.40;98980.28;10415023;28;20240;-69
2023/12/05 14:10:29;;;;;;;3.13;2.60;;;;;;;3.31;62.33;98889.28;10422841;28;20240;-69
2023/12/05 14:15:31;;;;;;;2.50;2.37;;;;;;;2.74;63.61;99012.16;10422316;28;20252;-69
2023/12/05 14:20:32;;;;;;;3.73;2.50;;;;;;;3.28;63.44;98904.50;10416948;28;20236;-69
2023/12/05 14:25:34;;;;;;;2.33;2.20;;;;;;;2.36;62.69;99090.69;10423548;28;20273;-69
2023/12/05 14:30:36;;;;;;;3.03;2.83;;;;;;;2.69;63.09;98951.84;10426857;28;20277;-69
2023/12/05 14:35:37;;;;;;;2.70;2.60;;;;;;;2.36;63.25;99046.63;10428763;28;20296;-69
2023/12/05 14:40:39;;;;;;;2.87;2.67;;;;;;;2.79;62.91;98956.19;10434887;28;20240;-69
2023/12/05 14:45:41;;;;;;;2.73;2.63;;;;;;;2.37;64.24;98978.81;10422965;28;20231;-72
2023/12/05 14:50:43;;;;;;;2.20;2.10;;;;;;;2.30;64.08;99005.00;10426645;28;20240;-72
2023/12/05 14:55:44;;;;;;;2.10;2.00;;;;;;;1.89;65.11;99086.31;10424447;28;20228;-71
2023/12/05 15:00:46;;;;;;;2.20;2.10;;;;;;;1.85;65.59;99041.94;10427574;28;20842;-73
2023/12/05 15:05:48;;;;;;;2.30;2.20;;;;;;;1.92;65.09;99086.03;10418707;28;20227;-73
2023/12/05 15:10:51;;;;;;;2.20;2.10;;;;;;;2.25;64.79;99001.97;10426226;28;20251;-72
2023/12/05 15:15:52;;;;;;;3.27;2.77;;;;;;;1.85;65.88;99020.81;10418136;28;20529;-73
2023/12/05 15:20:54;;;;;;;2.50;2.30;;;;;;;2.57;64.49;98916.09;10425228;28;20303;-73
2023/12/05 15:25:56;;;;;;;3.70;3.30;;;;;;;2.54;65.21;98908.50;10410538;28;20237;-72
2023/12/05 15:30:57;;;;;;;5.03;4.40;;;;;;;2.22;66.22;98951.28;10413300;28;20322;-73
2023/12/05 15:35:59;;;;;;;2.87;2.67;;;;;;;1.26;68.22;99057.09;10418418;28;20248;-73
2023/12/05 15:41:01;;;;;;;3.40;3.20;;;;;;;2.31;65.88;98945.91;10417593;28;20258;-74
2023/12/05 15:46:04;;;;;;;4.77;3.00;;;;;;;2.29;65.55;99040.28;10420225;28;20712;-75
2023/12/05 15:51:06;;;;;;;3.77;2.97;;;;;;;2.08;67.08;99000.13;10423646;28;20695;-72
2023/12/05 15:56:10;;;;;;;4.20;3.10;;;;;;;2.92;65.52;98919.66;10431214;28;20234;-74
2023/12/05 16:01:12;;;;;;;4.63;3.30;;;;;;;2.42;66.13;99031.19;10425573;28;20224;-74
2023/12/05 16:06:15;;;;;;;3.27;3.00;;;;;;;2.08;66.35;99100.41;10429375;28;20239;-71
2023/12/05 16:11:17;;;;;;;4.03;3.43;;;;;;;2.04;65.92;99107.81;10419773;28;20224;-74
2023/12/05 16:16:20;;;;;;;3.47;3.17;;;;;;;2.75;65.58;98942.47;10418918;28;20319;-75
2023/12/05 16:21:22;;;;;;;3.63;3.37;;;;;;;2.62;65.30;98957.88;10418511;28;20771;-71
2023/12/05 16:26:25;;;;;;;3.67;3.07;;;;;;;2.13;64.79;99112.22;10426435;28;20340;-73
2023/12/05 16:31:27;;;;;;;3.13;2.93;;;;;;;2.87;64.47;98943.91;10428781;28;20733;-73
2023/12/05 16:36:30;;;;;;;2.50;2.40;;;;;;;1.33;67.65;99101.19;10430273;28;20791;-73
2023/12/05 16:41:33;;;;;;;4.67;2.90;;;;;;;2.31;66.31;98996.06;10428820;28;20236;-73
2023/12/05 16:46:35;;;;;;;3.10;2.90;;;;;;;2.81;64.12;99001.81;10427707;28;20303;-68
2023/12/05 16:51:37;;;;;;;3.27;3.00;;;;;;;1.58;67.38;99065.47;10422330;28;20227;-68
2023/12/05 16:56:38;;;;;;;3.10;2.80;;;;;;;2.71;64.13;99015.13;10421568;28;20710;-68
2023/12/05 17:01:40;;;;;;;3.40;3.10;;;;;;;1.49;66.94;99139.34;10483189;23;20241;-36
2023/12/05 17:06:42;;;;;;;2.80;2.60;;;;;;;1.87;67.66;99000.41;10349416;28;20241;-36
2023/12/05 17:11:45;;;;;;;3.23;2.87;;;;;;;1.99;66.18;99070.47;10348096;23;20349;-34
2023/12/05 17:16:47;;;;;;;3.17;2.40;;;;;;;1.90;66.84;99039.69;10234918;28;20598;-33
2023/12/05 17:21:49;;;;;;;2.30;2.20;;;;;;;1.14;68.54;99088.03;10230459;28;20626;-34
2023/12/05 17:26:51;;;;;;;2.73;2.53;;;;;;;1.87;66.56;99016.22;10250954;28;20231;-34
2023/12/05 17:31:52;;;;;;;2.80;2.60;;;;;;;1.22;68.08;99109.25;10280708;28;20279;-35
2023/12/05 17:36:54;;;;;;;3.37;3.17;;;;;;;2.07;67.29;98941.25;10262985;28;20238;-34
2023/12/05 17:41:56;;;;;;;3.90;2.77;;;;;;;1.87;67.28;98993.31;10272776;28;20231;-34
2023/12/05 17:46:58;;;;;;;3.50;3.20;;;;;;;1.40;67.92;99090.91;10274655;28;20747;-34
2023/12/05 17:52:00;;;;;;;4.43;3.13;;;;;;;1.97;66.90;99011.72;10276232;28;20675;-34
2023/12/05 17:57:03;;;;;;;3.90;2.70;;;;;;;1.68;67.06;99070.72;10276389;28;20726;-34
2023/12/05 18:02:05;;;;;;;3.43;3.13;;;;;;;2.06;66.43;99029.31;10272308;28;20246;-34
2023/12/05 18:07:07;;;;;;;3.30;3.00;;;;;;;1.56;67.52;99027.06;10274839;28;20244;-33
2023/12/05 18:12:29;;;;;;;4.80;2.60;;;;;;;1.79;66.73;99060.00;10269815;28;20251;-34
2023/12/05 18:17:31;;;;;;;2.57;2.47;;;;;;;2.42;65.28;98981.84;10276241;28;20239;-34
2023/12/05 18:22:33;;;;;;;5.93;3.73;;;;;;;2.27;65.76;99022.94;10268277;28;20318;-34
2023/12/05 18:27:34;;;;;;;3.50;3.20;;;;;;;1.16;67.45;99209.94;10271945;28;20708;-34
2023/12/05 18:32:37;;;;;;;7.27;3.30;;;;;;;1.31;67.79;99110.22;10276778;28;20271;-34
2023/12/05 18:37:39;;;;;;;3.53;3.27;;;;;;;1.04;67.62;99188.16;10273695;28;20708;-34
2023/12/05 18:42:42;;;;;;;2.93;2.73;;;;;;;1.61;67.50;99054.66;10269154;28;21021;-34
2023/12/05 18:47:44;;;;;;;2.80;2.67;;;;;;;1.62;66.77;99113.50;10246883;28;20651;-34
2023/12/05 18:52:48;;;;;;;2.90;2.70;;;;;;;1.42;67.00;99149.59;10226670;28;20636;-34
2023/12/05 18:57:50;;;;;;;2.70;2.50;;;;;;;1.59;66.71;99129.59;10287387;28;20722;-34
2023/12/05 19:02:52;;;;;;;2.70;2.50;;;;;;;1.33;67.51;99122.28;10312820;28;20260;-34
2023/12/05 19:07:56;;;;;;;2.80;2.70;;;;;;;1.86;67.79;99001.34;10313582;28;20709;-34
2023/12/05 19:12:58;;;;;;;2.70;2.50;;;;;;;1.99;66.41;99022.97;10313115;28;20240;-34
2023/12/05 19:18:00;;;;;;;2.87;2.67;;;;;;;1.18;68.49;99102.56;10318090;28;20226;-33
2023/12/05 19:23:04;;;;;;;3.23;2.93;;;;;;;1.70;67.82;99041.56;10313370;28;20240;-34
2023/12/05 19:28:06;;;;;;;3.60;3.40;;;;;;;2.01;66.75;99030.72;10315763;28;20234;-33
2023/12/05 19:33:08;;;;;;;3.30;3.10;;;;;;;1.45;67.99;99108.97;10321526;28;20234;-34
2023/12/05 19:38:11;;;;;;;3.27;3.07;;;;;;;1.41;68.17;99076.78;10320604;28;20345;-34
2023/12/05 19:43:13;;;;;;;3.40;3.10;;;;;;;1.43;68.05;99059.00;10311912;28;20325;-33
2023/12/05 19:48:15;;;;;;;3.10;2.90;;;;;;;1.07;69.18;99106.19;10320554;28;20279;-34
2023/12/05 19:53:16;;;;;;;3.77;3.50;;;;;;;1.10;68.44;99134.91;10313129;28;20304;-33
2023/12/05 19:58:23;;;;;;;3.47;3.27;;;;;;;1.38;67.62;99109.50;10318597;28;20321;-34
2023/12/05 20:03:53;;;;;;;5.07;4.53;;;;;;;1.39;68.18;99081.38;10434391;28;20232;-33
2023/12/05 20:08:55;;;;;;;3.10;2.90;;;;;;;1.47;67.95;99073.56;10424096;28;20318;-34
2023/12/05 20:13:56;;;;;;;3.20;3.00;;;;;;;1.05;68.82;99145.00;10436801;28;20248;-34
2023/12/05 20:18:58;;;;;;;3.20;2.80;;;;;;;0.92;69.11;99184.00;10441138;28;20224;-34
2023/12/05 20:24:03;;;;;;;3.20;3.00;;;;;;;1.17;68.64;99150.97;10427412;28;20236;-33
2023/12/05 20:29:04;;;;;;;3.80;3.60;;;;;;;1.00;68.61;99187.59;10435505;28;20383;-34
2023/12/05 20:34:12;;;;;;;3.00;2.80;;;;;;;1.45;67.79;99135.31;10426329;28;20249;-33
2023/12/05 20:39:15;;;;;;;3.10;2.90;;;;;;;1.67;67.48;99113.91;10437755;28;20258;-33
2023/12/05 20:44:18;;;;;;;3.00;2.80;;;;;;;1.41;67.43;99188.34;10443864;28;20738;-34
2023/12/05 20:49:20;;;;;;;6.00;4.23;;;;;;;2.00;66.41;99110.91;10440331;28;20236;-34
2023/12/05 20:54:23;;;;;;;3.63;3.33;;;;;;;1.59;67.55;99143.63;10433041;28;20319;-34
2023/12/05 20:59:25;;;;;;;3.47;3.17;;;;;;;2.33;66.75;99041.66;10442100;28;20318;-34
2023/12/05 21:04:27;;;;;;;3.10;2.90;;;;;;;0.99;69.06;99222.00;10432343;28;20317;-35
2023/12/05 21:09:29;;;;;;;3.70;3.50;;;;;;;1.74;68.18;99093.06;10417362;28;20637;-35
2023/12/05 21:14:32;;;;;;;3.17;2.97;;;;;;;0.57;68.76;99370.44;10435499;28;20655;-33
2023/12/05 21:19:34;;;;;;;3.10;2.90;;;;;;;1.76;67.58;99146.53;10443365;28;20201;-34
2023/12/05 21:24:36;;;;;;;3.50;3.30;;;;;;;0.81;68.60;99367.50;10435514;28;20239;-34
2023/12/05 21:29:40;;;;;;;3.23;3.03;;;;;;;1.16;69.58;99196.78;10445378;28;20678;-34
2023/12/05 21:34:42;;;;;;;3.57;3.27;;;;;;;1.62;67.70;99200.53;10434392;28;20277;-34
2023/12/05 21:39:44;;;;;;;3.20;3.00;;;;;;;1.76;67.85;99135.97;10437723;28;20556;-34
2023/12/05 21:44:46;;;;;;;3.03;2.83;;;;;;;0.49;69.80;99363.19;10427156;28;20760;-34
2023/12/05 21:49:48;;;;;;;3.53;3.23;;;;;;;0.72;70.81;99270.84;10432787;28;20285;-33
2023/12/05 21:55:17;;;;;;;3.53;3.33;;;;;;;1.82;67.59;99187.31;10431570;28;20477;-34
2023/12/05 22:00:20;;;;;;;3.57;3.27;;;;;;;1.51;67.23;99303.53;10417346;28;20743;-34
2023/12/05 22:05:23;;;;;;;3.30;3.10;;;;;;;2.46;68.00;99067.69;10410809;28;20240;-34
2023/12/05 22:10:52;;;;;;;3.57;3.27;;;;;;;2.73;65.95;99121.47;10431664;28;20468;-34
2023/12/05 22:15:54;;;;;;;3.77;3.47;;;;;;;2.38;66.41;99191.72;10431296;28;20243;-35
2023/12/05 22:21:00;;;;;;;3.90;3.63;;;;;;;2.05;67.76;99216.88;10425748;28;20636;-34
2023/12/05 22:26:03;;;;;;;4.07;3.77;;;;;;;1.14;69.77;99312.88;10426305;28;20593;-34
2023/12/05 22:31:05;;;;;;;3.77;3.47;;;;;;;1.73;69.81;99178.47;10420115;28;20232;-33
2023/12/05 22:36:07;;;;;;;4.87;4.13;;;;;;;1.77;67.92;99278.25;10430369;28;20727;-34
2023/12/05 22:41:09;;;;;;;3.37;3.10;;;;;;;2.39;67.05;99208.41;10416585;28;20235;-34
2023/12/05 22:46:13;;;;;;;4.30;3.43;;;;;;;1.58;68.63;99329.22;10427090;28;20632;-34
2023/12/05 22:51:15;;;;;;;3.40;3.20;;;;;;;1.87;68.39;99257.16;10409057;28;20724;-34
2023/12/05 22:56:17;;;;;;;3.63;3.27;;;;;;;2.75;66.98;99139.81;10430454;28;20211;-34
2023/12/05 23:01:19;;;;;;;4.30;3.97;;;;;;;1.87;68.23;99282.72;10429067;28;20243;-34
2023/12/05 23:06:20;;;;;;;4.27;3.87;;;;;;;2.00;67.94;99274.53;10411431;28;20322;-35
2023/12/05 23:11:39;;;;;;;3.60;3.30;;;;;;;1.20;70.58;99327.31;10471258;22;20235;31
2023/12/05 23:16:40;;;;;;;4.30;4.00;;;;;;;1.53;68.57;99373.63;10028723;29;20692;-37
2023/12/05 23:21:42;;;;;;;4.67;3.53;;;;;;;2.50;67.29;99208.22;10024691;29;20371;-37
2023/12/05 23:26:44;;;;;;;3.57;3.27;;;;;;;1.50;68.98;99362.53;10027364;29;20242;-37
2023/12/05 23:31:46;;;;;;;3.43;3.13;;;;;;;1.46;69.10;99379.59;10023324;29;20266;-37
2023/12/05 23:36:48;;;;;;;5.20;3.70;;;;;;;1.97;68.09;99284.38;10051811;29;20317;-37
2023/12/05 23:41:51;;;;;;;4.50;4.10;;;;;;;2.11;67.81;99292.81;10058453;29;20242;-37
2023/12/05 23:46:53;;;;;;;4.53;3.30;;;;;;;2.17;67.77;99271.16;10062470;29;20240;-37